createdAt,value
2022-07-26T00:06:11.895Z,20.648
2022-07-26T00:21:13.746Z,21.553
2022-07-26T00:36:15.618Z,22.059
2022-07-26T00:51:17.473Z,21.061
2022-07-26T01:06:20.934Z,20.383
2022-07-26T01:21:25.810Z,20.208
2022-07-26T01:36:27.629Z,19.837
2022-07-26T01:51:29.461Z,19.407
2022-07-26T02:06:31.294Z,19.94
2022-07-26T02:21:33.630Z,19.831
2022-07-26T02:36:35.472Z,20.21
2022-07-26T02:51:37.302Z,20.61
2022-07-26T03:06:39.115Z,20.814
2022-07-26T03:21:40.911Z,21.072
2022-07-26T03:36:42.767Z,21.302
2022-07-26T03:51:44.587Z,21.43
2022-07-26T04:06:46.427Z,21.532
2022-07-26T04:21:48.297Z,21.612
2022-07-26T04:36:50.145Z,21.709
2022-07-26T04:51:56.188Z,22.021
2022-07-26T05:07:00.865Z,21.907
2022-07-26T05:22:02.688Z,22.162
2022-07-26T05:37:04.511Z,22.453
2022-07-26T05:52:06.325Z,22.841
2022-07-26T06:07:08.170Z,22.552
2022-07-26T06:22:10.021Z,22.789
2022-07-26T06:37:11.893Z,22.777
2022-07-26T06:52:13.710Z,22.665
2022-07-26T07:07:15.553Z,22.988
2022-07-26T07:22:17.381Z,22.581
2022-07-26T07:37:20.124Z,22.443
2022-07-26T07:52:22.221Z,22.818
2022-07-26T08:07:24.304Z,23.002
2022-07-26T08:22:34.938Z,23.182
2022-07-26T08:37:36.788Z,23.493
2022-07-26T08:52:38.683Z,23.619
2022-07-26T09:07:40.508Z,23.984
2022-07-26T09:22:42.359Z,23.984
2022-07-26T09:37:44.197Z,24.21
2022-07-26T09:52:46.013Z,24.556
2022-07-26T10:07:47.829Z,24.783
2022-07-26T10:22:49.708Z,24.869
2022-07-26T10:37:51.547Z,25.944
2022-07-26T10:52:53.364Z,25.774
2022-07-26T11:07:55.225Z,26.065
2022-07-26T11:22:57.063Z,26.172
2022-07-26T11:38:09.544Z,26.049
2022-07-26T11:53:13.851Z,26.297
2022-07-26T12:08:15.689Z,26.68
2022-07-26T12:23:17.545Z,26.258
2022-07-26T12:38:19.404Z,26.382
2022-07-26T12:53:21.248Z,26.423
2022-07-26T13:08:23.121Z,26.45
2022-07-26T13:23:26.832Z,26.559
2022-07-26T13:38:28.856Z,26.864
2022-07-26T13:53:30.700Z,26.993
2022-07-26T14:08:32.526Z,26.927
2022-07-26T14:23:34.386Z,27.329
2022-07-26T14:38:36.247Z,27.264
2022-07-26T14:53:38.187Z,27.609
2022-07-26T15:08:40.032Z,27.469
2022-07-26T15:23:41.865Z,27.304
2022-07-26T15:38:43.697Z,26.81
2022-07-26T15:53:46.472Z,26.419
2022-07-26T16:09:13.934Z,26.312
2022-07-26T16:24:16.858Z,26.535
2022-07-26T16:39:18.717Z,25.229
2022-07-26T16:54:20.552Z,25.114
2022-07-26T17:09:22.389Z,27.159
2022-07-26T17:24:24.246Z,26.75
2022-07-26T17:39:26.065Z,27.284
2022-07-26T17:54:53.255Z,26.001
2022-07-26T18:09:55.099Z,27.332
2022-07-26T18:24:56.890Z,26.976
2022-07-26T18:39:58.683Z,26.967
2022-07-26T18:55:00.555Z,26.792
2022-07-26T19:10:02.396Z,26.916
2022-07-26T19:25:04.220Z,25.616
2022-07-26T19:40:06.135Z,25.176
2022-07-26T19:55:07.969Z,24.936
2022-07-26T20:10:09.797Z,24.91
2022-07-26T20:25:12.119Z,25.223
2022-07-26T20:40:14.915Z,25.168
2022-07-26T20:55:19.645Z,25.423
2022-07-26T21:10:21.487Z,25.537
2022-07-26T21:25:23.934Z,24.058
2022-07-26T21:40:25.761Z,23.387
2022-07-26T21:55:27.590Z,24.862
2022-07-26T22:10:29.442Z,24.34
2022-07-26T22:25:31.301Z,24.118
2022-07-26T22:40:33.131Z,26.819
2022-07-26T22:55:34.985Z,24.75
2022-07-26T23:10:36.830Z,26.215
2022-07-26T23:25:38.657Z,24.692
2022-07-26T23:40:40.470Z,24.641
2022-07-26T23:55:43.634Z,26.451
